Time,TemperatureF,DewpointF,PressureIn,WindDirection,WindDirectionDegrees,WindSpeedMPH,WindSpeedGustMPH,Humidity,HourlyPrecipIn,Conditions,Clouds,dailyrainin,SoftwareType,DateUTC
2013-12-22 00:00:00,22.0,21.0,-100.00,North,0,0.0,-999.0,98,-99.99,,,-99.99,,2013-12-22 00:00:00,
2013-12-22 00:42:00,22.0,21.0,-100.00,North,0,0.0,-999.0,98,-99.99,,,-99.99,,2013-12-22 00:42:00,
2013-12-22 00:52:00,22.0,21.0,-100.00,North,0,0.0,-999.0,98,-99.99,,,-99.99,,2013-12-22 00:52:00,
2013-12-22 01:00:00,22.0,21.0,-100.00,NE,40,3.0,-999.0,98,-99.99,,,-99.99,,2013-12-22 01:00:00,
2013-12-22 01:42:00,22.0,21.0,-100.00,NE,40,3.0,-999.0,98,-99.99,,,-99.99,,2013-12-22 01:42:00,
2013-12-22 01:52:00,22.0,21.0,-100.00,NE,40,3.0,-999.0,98,-99.99,,,-99.99,,2013-12-22 01:52:00,
2013-12-22 02:00:00,22.0,22.0,-100.00,NE,40,2.0,-999.0,99,-99.99,,,-99.99,,2013-12-22 02:00:00,
2013-12-22 02:42:00,22.0,22.0,-100.00,NE,40,2.0,-999.0,99,-99.99,,,-99.99,,2013-12-22 02:42:00,
2013-12-22 02:52:00,22.0,22.0,-100.00,NE,40,2.0,-999.0,99,-99.99,,,-99.99,,2013-12-22 02:52:00,
2013-12-22 03:00:00,-999.0,-99.9,-100.00,NE,40,3.0,-999.0,-999,-99.99,,,-99.99,,2013-12-22 03:00:00,
2013-12-22 03:43:00,22.0,22.0,-100.00,NE,40,3.0,-999.0,99,-99.99,,,-99.99,,2013-12-22 03:43:00,
2013-12-22 03:53:00,22.0,22.0,-100.00,NE,40,3.0,-999.0,99,-99.99,,,-99.99,,2013-12-22 03:53:00,
2013-12-22 04:00:00,22.0,22.0,-100.00,NE,40,2.0,-999.0,99,-99.99,,,-99.99,,2013-12-22 04:00:00,
2013-12-22 04:43:00,22.0,22.0,-100.00,NE,40,2.0,-999.0,99,-99.99,,,-99.99,,2013-12-22 04:43:00,
2013-12-22 04:52:00,22.0,22.0,-100.00,NE,40,2.0,-999.0,99,-99.99,,,-99.99,,2013-12-22 04:52:00,
2013-12-22 05:00:00,21.0,21.0,-100.00,NE,50,5.0,-999.0,99,-99.99,,,-99.99,,2013-12-22 05:00:00,
2013-12-22 05:43:00,21.0,21.0,-100.00,NE,50,5.0,-999.0,99,-99.99,,,-99.99,,2013-12-22 05:43:00,
2013-12-22 05:52:00,21.0,21.0,-100.00,NE,50,5.0,-999.0,99,-99.99,,,-99.99,,2013-12-22 05:52:00,
2013-12-22 06:00:00,20.0,20.0,-100.00,ENE,60,6.0,-999.0,99,-99.99,,,-99.99,,2013-12-22 06:00:00,
2013-12-22 06:42:00,20.0,20.0,-100.00,ENE,60,6.0,-999.0,99,-99.99,,,-99.99,,2013-12-22 06:42:00,
2013-12-22 06:52:00,20.0,20.0,-100.00,ENE,60,6.0,-999.0,99,-99.99,,,-99.99,,2013-12-22 06:52:00,
2013-12-22 07:00:00,19.0,19.0,-100.00,NE,50,5.0,-999.0,99,-99.99,,,-99.99,,2013-12-22 07:00:00,
2013-12-22 07:42:00,19.0,19.0,-100.00,NE,50,5.0,-999.0,99,-99.99,,,-99.99,,2013-12-22 07:42:00,
2013-12-22 07:52:00,19.0,19.0,-100.00,NE,50,5.0,-999.0,99,-99.99,,,-99.99,,2013-12-22 07:52:00,
2013-12-22 08:00:00,19.0,19.0,-100.00,ENE,60,6.0,-999.0,99,-99.99,,,-99.99,,2013-12-22 08:00:00,
2013-12-22 08:42:00,19.0,19.0,-100.00,ENE,60,6.0,-999.0,99,-99.99,,,-99.99,,2013-12-22 08:42:00,
2013-12-22 08:52:00,19.0,19.0,-100.00,ENE,60,6.0,-999.0,99,-99.99,,,-99.99,,2013-12-22 08:52:00,
2013-12-22 09:00:00,18.0,18.0,-100.00,ENE,60,6.0,-999.0,98,-99.99,,,-99.99,,2013-12-22 09:00:00,
2013-12-22 09:43:00,18.0,18.0,-100.00,ENE,60,6.0,-999.0,98,-99.99,,,-99.99,,2013-12-22 09:43:00,
2013-12-22 09:53:00,18.0,18.0,-100.00,ENE,60,6.0,-999.0,98,-99.99,,,-99.99,,2013-12-22 09:53:00,
2013-12-22 11:00:00,20.0,20.0,-100.00,ENE,70,11.0,-999.0,99,-99.99,,,-99.99,,2013-12-22 11:00:00,
2013-12-22 11:42:00,20.0,20.0,-100.00,ENE,70,11.0,-999.0,99,-99.99,,,-99.99,,2013-12-22 11:42:00,
2013-12-22 11:52:00,20.0,20.0,-100.00,ENE,70,11.0,-999.0,99,-99.99,,,-99.99,,2013-12-22 11:52:00,
2013-12-22 12:00:00,20.0,20.0,-100.00,ENE,70,29.0,-999.0,99,-99.99,,,-99.99,,2013-12-22 12:00:00,
2013-12-22 12:42:00,20.0,20.0,-100.00,ENE,70,29.0,-999.0,99,-99.99,,,-99.99,,2013-12-22 12:42:00,
2013-12-22 12:52:00,20.0,20.0,-100.00,ENE,70,29.0,-999.0,99,-99.99,,,-99.99,,2013-12-22 12:52:00,
2013-12-22 13:00:00,21.0,20.0,-100.00,NE,50,21.0,-999.0,99,-99.99,,,-99.99,,2013-12-22 13:00:00,
2013-12-22 13:42:00,21.0,20.0,-100.00,NE,50,21.0,-999.0,99,-99.99,,,-99.99,,2013-12-22 13:42:00,
2013-12-22 13:52:00,21.0,20.0,-100.00,NE,50,21.0,-999.0,99,-99.99,,,-99.99,,2013-12-22 13:52:00,
2013-12-22 14:00:00,20.0,19.0,-100.00,ENE,60,21.0,-999.0,98,-99.99,,,-99.99,,2013-12-22 14:00:00,
2013-12-22 14:42:00,20.0,19.0,-100.00,ENE,60,21.0,-999.0,98,-99.99,,,-99.99,,2013-12-22 14:42:00,
2013-12-22 14:52:00,20.0,19.0,-100.00,ENE,60,21.0,-999.0,98,-99.99,,,-99.99,,2013-12-22 14:52:00,
2013-12-22 15:00:00,19.0,19.0,-100.00,ENE,60,23.0,-999.0,98,-99.99,,,-99.99,,2013-12-22 15:00:00,
2013-12-22 15:43:00,19.0,19.0,-100.00,ENE,60,23.0,-999.0,98,-99.99,,,-99.99,,2013-12-22 15:43:00,
2013-12-22 15:53:00,19.0,19.0,-100.00,ENE,60,23.0,-999.0,98,-99.99,,,-99.99,,2013-12-22 15:53:00,
2013-12-22 16:00:00,19.0,19.0,-100.00,East,80,28.0,-999.0,98,-99.99,,,-99.99,,2013-12-22 16:00:00,
2013-12-22 16:42:00,19.0,19.0,-100.00,East,80,28.0,-999.0,98,-99.99,,,-99.99,,2013-12-22 16:42:00,
2013-12-22 16:52:00,19.0,19.0,-100.00,East,80,28.0,-999.0,98,-99.99,,,-99.99,,2013-12-22 16:52:00,
2013-12-22 17:00:00,20.0,19.0,-100.00,ENE,70,25.0,-999.0,98,-99.99,,,-99.99,,2013-12-22 17:00:00,
2013-12-22 17:42:00,20.0,19.0,-100.00,ENE,70,25.0,-999.0,98,-99.99,,,-99.99,,2013-12-22 17:42:00,
2013-12-22 17:52:00,20.0,19.0,-100.00,ENE,70,25.0,-999.0,98,-99.99,,,-99.99,,2013-12-22 17:52:00,
2013-12-22 18:00:00,20.0,20.0,-100.00,ENE,60,17.0,-999.0,98,-99.99,,,-99.99,,2013-12-22 18:00:00,
2013-12-22 18:42:00,20.0,20.0,-100.00,ENE,60,17.0,-999.0,98,-99.99,,,-99.99,,2013-12-22 18:42:00,
2013-12-22 18:52:00,20.0,20.0,-100.00,ENE,60,17.0,-999.0,98,-99.99,,,-99.99,,2013-12-22 18:52:00,
2013-12-22 19:00:00,20.0,20.0,-100.00,NE,50,11.0,-999.0,99,-99.99,,,-99.99,,2013-12-22 19:00:00,
2013-12-22 19:42:00,20.0,20.0,-100.00,NE,50,11.0,-999.0,99,-99.99,,,-99.99,,2013-12-22 19:42:00,
2013-12-22 19:52:00,20.0,20.0,-100.00,NE,50,11.0,-999.0,99,-99.99,,,-99.99,,2013-12-22 19:52:00,
2013-12-22 20:00:00,20.0,20.0,-100.00,ENE,60,9.0,-999.0,99,-99.99,,,-99.99,,2013-12-22 20:00:00,
2013-12-22 20:42:00,20.0,20.0,-100.00,ENE,60,9.0,-999.0,99,-99.99,,,-99.99,,2013-12-22 20:42:00,
2013-12-22 20:52:00,20.0,20.0,-100.00,ENE,60,9.0,-999.0,99,-99.99,,,-99.99,,2013-12-22 20:52:00,
2013-12-22 21:00:00,20.0,20.0,-100.00,ENE,60,9.0,-999.0,99,-99.99,,,-99.99,,2013-12-22 21:00:00,
2013-12-22 21:43:00,20.0,20.0,-100.00,ENE,60,9.0,-999.0,99,-99.99,,,-99.99,,2013-12-22 21:43:00,
2013-12-22 21:53:00,20.0,20.0,-100.00,ENE,60,9.0,-999.0,99,-99.99,,,-99.99,,2013-12-22 21:53:00,
2013-12-22 22:00:00,20.0,20.0,-100.00,ENE,70,8.0,-999.0,99,-99.99,,,-99.99,,2013-12-22 22:00:00,
2013-12-22 22:42:00,20.0,20.0,-100.00,ENE,70,8.0,-999.0,99,-99.99,,,-99.99,,2013-12-22 22:42:00,
2013-12-22 22:53:00,20.0,20.0,-100.00,ENE,70,8.0,-999.0,99,-99.99,,,-99.99,,2013-12-22 22:53:00,
2013-12-22 23:00:00,20.0,20.0,-100.00,North,0,0.0,-999.0,99,-99.99,,,-99.99,,2013-12-22 23:00:00,
2013-12-22 23:42:00,20.0,20.0,-100.00,North,0,0.0,-999.0,99,-99.99,,,-99.99,,2013-12-22 23:42:00,
2013-12-22 23:53:00,20.0,20.0,-100.00,North,0,0.0,-999.0,99,-99.99,,,-99.99,,2013-12-22 23:53:00,